createdAt,value
2018-06-14T00:00:16.693Z,0.00
2018-06-14T00:02:16.771Z,0.00
2018-06-14T00:03:16.467Z,0.00
2018-06-14T00:04:16.433Z,0.00
2018-06-14T00:05:16.495Z,0.00
2018-06-14T00:06:16.465Z,0.00
2018-06-14T00:07:16.381Z,0.00
2018-06-14T00:08:16.727Z,0.00
2018-06-14T00:09:16.418Z,0.00
2018-06-14T00:10:16.431Z,0.00
2018-06-14T00:11:16.372Z,0.00
2018-06-14T00:12:16.421Z,0.00
2018-06-14T00:13:16.226Z,0.00
2018-06-14T00:14:16.966Z,0.00
2018-06-14T00:16:16.309Z,0.00
2018-06-14T00:17:16.179Z,0.00
2018-06-14T00:18:16.179Z,0.00
2018-06-14T00:19:16.113Z,0.00
2018-06-14T00:20:16.469Z,0.00
2018-06-14T00:21:16.472Z,0.00
2018-06-14T00:22:16.131Z,0.00
2018-06-14T00:23:16.100Z,0.00
2018-06-14T00:24:16.014Z,0.00
2018-06-14T00:25:16.069Z,0.00
2018-06-14T00:26:16.411Z,0.00
2018-06-14T00:28:16.011Z,0.00
2018-06-14T00:29:16.012Z,0.00
2018-06-14T00:30:16.045Z,0.00
2018-06-14T00:31:16.071Z,0.00
2018-06-14T00:32:17.023Z,0.00
2018-06-14T00:33:16.035Z,0.00
2018-06-14T00:34:17.480Z,0.00
2018-06-14T00:35:15.891Z,0.00
2018-06-14T00:38:16.180Z,0.00
2018-06-14T00:39:15.898Z,0.00
2018-06-14T00:40:15.846Z,0.00
2018-06-14T00:42:15.939Z,0.00
2018-06-14T00:43:15.794Z,0.00
2018-06-14T00:44:15.960Z,0.00
2018-06-14T00:46:15.651Z,0.00
2018-06-14T00:47:15.707Z,0.00
2018-06-14T00:48:15.603Z,0.00
2018-06-14T00:49:15.940Z,0.00
2018-06-14T00:50:15.655Z,0.00
2018-06-14T00:51:15.608Z,0.00
2018-06-14T00:52:15.938Z,0.00
2018-06-14T00:53:15.564Z,0.00
2018-06-14T00:54:15.568Z,0.00
2018-06-14T00:55:15.510Z,0.00
2018-06-14T00:56:15.558Z,0.00
2018-06-14T00:57:15.553Z,0.00
2018-06-14T00:58:15.506Z,0.00
2018-06-14T01:00:15.752Z,0.00
2018-06-14T01:01:15.411Z,0.00
2018-06-14T01:06:15.610Z,0.00
2018-06-14T01:07:15.266Z,0.00
2018-06-14T01:08:15.379Z,0.00
2018-06-14T01:09:15.269Z,0.00
2018-06-14T01:10:15.270Z,0.00
2018-06-14T01:11:15.215Z,0.00
2018-06-14T01:12:15.218Z,0.00
2018-06-14T01:13:15.476Z,0.00
2018-06-14T01:15:15.325Z,0.00
2018-06-14T01:16:15.316Z,0.00
2018-06-14T01:17:15.226Z,0.00
2018-06-14T01:18:15.268Z,0.00
2018-06-14T01:19:15.122Z,0.00
2018-06-14T01:20:15.413Z,0.00
2018-06-14T01:21:15.028Z,0.00
2018-06-14T01:22:15.091Z,0.00
2018-06-14T01:23:15.034Z,0.00
2018-06-14T01:24:15.198Z,0.00
2018-06-14T01:25:15.175Z,0.00
2018-06-14T01:26:15.274Z,0.00
2018-06-14T01:27:14.948Z,0.00
2018-06-14T01:28:15.028Z,0.00
2018-06-14T01:29:14.943Z,0.00
2018-06-14T01:30:14.875Z,0.00
2018-06-14T01:31:14.855Z,0.00
2018-06-14T01:32:15.185Z,0.00
2018-06-14T01:33:14.835Z,0.00
2018-06-14T01:34:14.836Z,0.00
2018-06-14T01:35:14.834Z,0.00
2018-06-14T01:36:15.555Z,0.00
2018-06-14T01:37:14.762Z,0.00
2018-06-14T01:38:15.075Z,0.00
2018-06-14T01:39:14.834Z,0.00
2018-06-14T01:40:14.744Z,0.00
2018-06-14T01:41:14.749Z,0.00
2018-06-14T01:42:14.795Z,0.00
2018-06-14T01:44:15.079Z,0.00
2018-06-14T01:45:14.739Z,0.00
2018-06-14T01:46:14.738Z,0.00
2018-06-14T01:47:14.549Z,0.00
2018-06-14T01:48:14.653Z,0.00
2018-06-14T01:49:14.595Z,0.00
2018-06-14T01:50:14.789Z,0.00
2018-06-14T01:51:14.547Z,0.00
2018-06-14T01:52:14.518Z,0.00
2018-06-14T01:54:14.466Z,0.00
2018-06-14T01:55:14.403Z,0.00
2018-06-14T01:58:14.705Z,0.00
2018-06-14T01:59:14.402Z,0.00
2018-06-14T02:00:14.406Z,0.00
2018-06-14T02:01:14.368Z,0.00
2018-06-14T02:02:14.355Z,0.00
2018-06-14T02:03:14.259Z,0.00
2018-06-14T02:04:14.247Z,0.00
2018-06-14T02:05:14.595Z,0.00
2018-06-14T02:06:14.366Z,0.00
2018-06-14T02:07:14.286Z,0.00
2018-06-14T02:08:14.192Z,0.00
2018-06-14T02:09:14.307Z,0.00
2018-06-14T02:10:14.142Z,0.00
2018-06-14T02:11:14.214Z,0.00
2018-06-14T02:12:14.548Z,0.00
2018-06-14T02:13:14.115Z,0.00
2018-06-14T02:16:14.549Z,0.00
2018-06-14T02:18:14.599Z,0.00
2018-06-14T02:19:14.055Z,0.00
2018-06-14T02:20:14.068Z,0.00
2018-06-14T02:21:14.116Z,0.00
2018-06-14T02:22:13.949Z,0.00
2018-06-14T02:23:13.971Z,0.00
2018-06-14T02:24:14.067Z,0.00
2018-06-14T02:25:14.235Z,0.00
2018-06-14T02:26:13.972Z,0.00
2018-06-14T02:27:13.931Z,0.00
2018-06-14T02:28:14.115Z,0.00
2018-06-14T02:29:13.897Z,0.00
2018-06-14T02:30:13.875Z,0.00
2018-06-14T02:31:19.324Z,0.00
2018-06-14T02:32:14.852Z,0.00
2018-06-14T02:33:13.757Z,0.00
2018-06-14T02:34:13.827Z,0.00
2018-06-14T02:35:13.797Z,0.00
2018-06-14T02:36:13.834Z,0.00
2018-06-14T02:37:13.874Z,0.00
2018-06-14T02:38:13.683Z,0.00
2018-06-14T02:39:13.977Z,0.00
2018-06-14T02:40:13.779Z,0.00
2018-06-14T02:41:13.688Z,0.00
2018-06-14T02:42:13.784Z,0.00
2018-06-14T02:43:13.737Z,0.00
2018-06-14T02:44:14.405Z,0.00
2018-06-14T02:45:13.651Z,0.00
2018-06-14T02:47:13.882Z,0.00
2018-06-14T02:48:13.683Z,0.00
2018-06-14T02:49:13.731Z,0.00
2018-06-14T02:50:13.539Z,0.00
2018-06-14T02:52:13.445Z,0.00
2018-06-14T02:53:13.733Z,0.00
2018-06-14T02:55:13.553Z,0.00
2018-06-14T02:56:13.396Z,0.00
2018-06-14T02:57:13.419Z,0.00
2018-06-14T02:58:13.349Z,0.00
2018-06-14T02:59:13.620Z,5.63
2018-06-14T03:00:13.505Z,5.63
2018-06-14T03:01:13.411Z,5.63
2018-06-14T03:03:13.396Z,5.63
2018-06-14T03:04:13.306Z,5.63
2018-06-14T03:05:13.541Z,5.63
2018-06-14T03:06:13.204Z,5.63
2018-06-14T03:07:13.251Z,5.63
2018-06-14T03:08:13.254Z,5.63
2018-06-14T03:09:13.157Z,5.63
2018-06-14T03:10:13.136Z,5.63
2018-06-14T03:11:13.491Z,5.63
2018-06-14T03:12:13.108Z,11.25
2018-06-14T03:13:13.174Z,11.25
2018-06-14T03:14:13.086Z,11.25
2018-06-14T03:15:13.165Z,11.25
2018-06-14T03:16:13.156Z,11.25
2018-06-14T03:17:13.385Z,11.25
2018-06-14T03:18:13.106Z,16.88
2018-06-14T03:19:13.059Z,16.88
2018-06-14T03:20:13.013Z,16.88
2018-06-14T03:21:13.011Z,16.88
2018-06-14T03:22:13.011Z,16.88
2018-06-14T03:23:13.278Z,16.88
2018-06-14T03:24:12.963Z,16.88
2018-06-14T03:25:13.011Z,16.88
2018-06-14T03:26:12.970Z,16.88
2018-06-14T03:27:12.971Z,16.88
2018-06-14T03:28:12.915Z,16.88
2018-06-14T03:29:13.154Z,16.88
2018-06-14T03:30:12.820Z,16.88
2018-06-14T03:31:13.024Z,16.88
2018-06-14T03:32:12.766Z,16.88
2018-06-14T03:33:12.804Z,22.50
2018-06-14T03:34:12.913Z,22.50
2018-06-14T03:35:12.916Z,22.50
2018-06-14T03:36:13.402Z,22.50
2018-06-14T03:37:12.819Z,22.50
2018-06-14T03:38:12.674Z,28.13
2018-06-14T03:39:12.653Z,28.13
2018-06-14T03:40:12.694Z,28.13
2018-06-14T03:42:12.955Z,33.75
2018-06-14T03:43:12.689Z,33.75
2018-06-14T03:44:12.724Z,39.38
2018-06-14T03:45:12.580Z,39.38
2018-06-14T03:46:12.830Z,39.38
2018-06-14T03:47:12.691Z,45.00
2018-06-14T03:49:12.868Z,50.63
2018-06-14T03:50:12.557Z,56.25
2018-06-14T03:51:12.531Z,61.88
2018-06-14T03:52:12.890Z,61.88
2018-06-14T03:53:12.480Z,67.50
2018-06-14T03:54:12.543Z,67.50
2018-06-14T03:55:12.444Z,67.50
2018-06-14T03:56:12.672Z,61.88
2018-06-14T03:57:12.381Z,61.88
2018-06-14T03:58:12.341Z,61.88
2018-06-14T03:59:12.388Z,61.88
2018-06-14T04:00:12.320Z,61.88
2018-06-14T04:02:12.645Z,61.88
2018-06-14T04:04:12.323Z,73.13
2018-06-14T04:05:12.227Z,84.38
2018-06-14T04:06:12.278Z,78.75
2018-06-14T04:07:12.255Z,84.38
2018-06-14T04:09:12.889Z,84.38
2018-06-14T04:10:12.345Z,84.38
2018-06-14T04:11:12.206Z,90.00
2018-06-14T04:12:12.192Z,90.00
2018-06-14T04:13:12.171Z,84.38
2018-06-14T04:14:12.204Z,84.38
2018-06-14T04:16:12.580Z,101.25
2018-06-14T04:18:12.098Z,101.25
2018-06-14T04:19:12.110Z,101.25
2018-06-14T04:20:12.050Z,101.25
2018-06-14T04:21:12.098Z,106.88
2018-06-14T04:23:12.414Z,118.13
2018-06-14T04:24:11.954Z,123.75
2018-06-14T04:25:11.906Z,118.13
2018-06-14T04:26:11.975Z,106.88
2018-06-14T04:27:11.906Z,112.50
2018-06-14T04:28:11.923Z,106.88
2018-06-14T04:29:12.200Z,101.25
2018-06-14T04:30:11.817Z,95.63
2018-06-14T04:31:11.812Z,95.63
2018-06-14T04:32:11.810Z,95.63
2018-06-14T04:33:11.772Z,95.63
2018-06-14T04:34:11.763Z,95.63
2018-06-14T04:35:12.195Z,95.63
2018-06-14T04:36:11.762Z,95.63
2018-06-14T04:37:11.762Z,106.88
2018-06-14T04:38:11.694Z,106.88
2018-06-14T04:39:12.028Z,112.50
2018-06-14T04:40:11.754Z,118.13
2018-06-14T04:41:12.102Z,129.38
2018-06-14T04:42:11.715Z,146.25
2018-06-14T04:43:11.668Z,140.63
2018-06-14T04:44:11.618Z,135.00
2018-06-14T04:45:11.619Z,129.38
2018-06-14T04:46:11.619Z,135.00
2018-06-14T04:47:11.955Z,140.63
2018-06-14T04:48:11.549Z,135.00
2018-06-14T04:49:11.570Z,135.00
2018-06-14T04:50:11.523Z,151.88
2018-06-14T04:51:11.525Z,163.13
2018-06-14T04:52:11.476Z,174.38
2018-06-14T04:53:11.813Z,168.75
2018-06-14T04:55:11.477Z,163.13
2018-06-14T04:56:11.475Z,168.75
2018-06-14T04:57:11.426Z,163.13
2018-06-14T04:58:11.570Z,168.75
2018-06-14T04:59:11.929Z,174.38
2018-06-14T05:01:11.764Z,174.38
2018-06-14T05:02:11.390Z,174.38
2018-06-14T05:03:11.331Z,163.13
2018-06-14T05:04:11.339Z,157.50
2018-06-14T05:05:11.427Z,157.50
2018-06-14T05:06:11.571Z,174.38
2018-06-14T05:07:11.283Z,174.38
2018-06-14T05:08:11.229Z,185.63
2018-06-14T05:09:11.235Z,180.00
2018-06-14T05:10:11.235Z,180.00
2018-06-14T05:11:11.236Z,180.00
2018-06-14T05:12:11.170Z,163.13
2018-06-14T05:14:11.187Z,135.00
2018-06-14T05:15:11.143Z,135.00
2018-06-14T05:16:11.267Z,135.00
2018-06-14T05:17:11.192Z,135.00
2018-06-14T05:18:11.120Z,140.63
2018-06-14T05:19:11.099Z,135.00
2018-06-14T05:20:11.357Z,140.63
2018-06-14T05:21:11.042Z,140.63
2018-06-14T05:22:11.044Z,140.63
2018-06-14T05:23:11.046Z,140.63
2018-06-14T05:24:10.996Z,146.25
2018-06-14T05:25:10.985Z,146.25
2018-06-14T05:27:11.290Z,163.13
2018-06-14T05:30:11.069Z,241.88
2018-06-14T05:32:10.962Z,275.63
2018-06-14T05:35:10.953Z,286.88
2018-06-14T05:42:11.306Z,298.13
2018-06-14T05:44:10.902Z,292.50
2018-06-14T05:46:10.807Z,309.38
2018-06-14T05:47:10.803Z,292.50
2018-06-14T05:48:10.760Z,281.25
2018-06-14T05:49:11.139Z,258.75
2018-06-14T05:50:10.939Z,270.00
2018-06-14T05:51:10.731Z,281.25
2018-06-14T05:52:10.765Z,258.75
2018-06-14T05:53:10.680Z,264.38
2018-06-14T05:54:10.707Z,258.75
2018-06-14T05:55:11.047Z,264.38
2018-06-14T05:56:10.912Z,275.63
2018-06-14T05:57:10.914Z,275.63
2018-06-14T05:58:10.591Z,275.63
2018-06-14T05:59:10.652Z,286.88
2018-06-14T06:00:10.463Z,292.50
2018-06-14T06:01:10.900Z,298.13
2018-06-14T06:02:10.622Z,298.13
2018-06-14T06:03:10.553Z,292.50
2018-06-14T06:04:10.543Z,264.38
2018-06-14T06:05:10.497Z,247.50
2018-06-14T06:06:10.484Z,258.75
2018-06-14T06:07:10.917Z,281.25
2018-06-14T06:08:10.551Z,281.25
2018-06-14T06:09:10.423Z,298.13
2018-06-14T06:10:10.468Z,286.88
2018-06-14T06:11:10.469Z,286.88
2018-06-14T06:12:10.428Z,298.13
2018-06-14T06:13:11.012Z,303.75
2018-06-14T06:14:10.547Z,298.13
2018-06-14T06:15:10.420Z,292.50
2018-06-14T06:16:10.244Z,292.50
2018-06-14T06:17:10.243Z,286.88
2018-06-14T06:18:10.218Z,292.50
2018-06-14T06:19:10.508Z,315.00
2018-06-14T06:20:10.259Z,326.25
2018-06-14T06:22:10.173Z,382.50
2018-06-14T06:23:10.256Z,388.13
2018-06-14T06:24:10.137Z,405.00
2018-06-14T06:25:10.453Z,399.38
2018-06-14T06:26:10.231Z,405.00
2018-06-14T06:27:10.105Z,393.75
2018-06-14T06:28:10.108Z,388.13
2018-06-14T06:29:10.405Z,399.38
2018-06-14T06:30:10.062Z,416.25
2018-06-14T06:31:10.520Z,438.75
2018-06-14T06:32:10.217Z,528.75
2018-06-14T06:33:10.347Z,489.38
2018-06-14T06:35:10.021Z,450.00
2018-06-14T06:36:10.622Z,455.63
2018-06-14T06:37:10.081Z,478.13
2018-06-14T06:39:10.309Z,416.25
2018-06-14T06:40:09.940Z,416.25
2018-06-14T06:41:10.027Z,393.75
2018-06-14T06:43:10.000Z,399.38
2018-06-14T06:44:09.992Z,382.50
2018-06-14T06:45:09.994Z,393.75
2018-06-14T06:46:10.356Z,405.00
2018-06-14T06:47:09.958Z,421.88
2018-06-14T06:48:09.835Z,438.75
2018-06-14T06:49:09.825Z,444.38
2018-06-14T06:50:09.822Z,444.38
2018-06-14T06:51:09.862Z,416.25
2018-06-14T06:52:09.803Z,410.63
2018-06-14T06:53:10.213Z,421.88
2018-06-14T06:54:09.764Z,399.38
2018-06-14T06:55:09.854Z,376.88
2018-06-14T06:56:09.843Z,360.00
2018-06-14T06:57:09.833Z,354.38
2018-06-14T06:58:09.815Z,343.13
2018-06-14T06:59:09.873Z,331.88
2018-06-14T07:00:09.991Z,331.88
2018-06-14T07:01:09.680Z,343.13
2018-06-14T07:03:09.708Z,365.63
2018-06-14T07:04:09.643Z,376.88
2018-06-14T07:05:09.708Z,399.38
2018-06-14T07:06:09.757Z,421.88
2018-06-14T07:07:09.922Z,438.75
2018-06-14T07:08:09.605Z,455.63
2018-06-14T07:09:09.633Z,466.88
2018-06-14T07:10:14.222Z,450.00
2018-06-14T07:11:09.580Z,444.38
2018-06-14T07:12:09.553Z,433.13
2018-06-14T07:13:09.539Z,438.75
2018-06-14T07:14:09.837Z,450.00
2018-06-14T07:15:09.573Z,489.38
2018-06-14T07:16:09.516Z,545.63
2018-06-14T07:17:09.586Z,534.38
2018-06-14T07:18:09.480Z,568.13
2018-06-14T07:19:09.593Z,579.38
2018-06-14T07:20:09.452Z,613.13
2018-06-14T07:21:09.795Z,585.00
2018-06-14T07:22:09.441Z,601.88
2018-06-14T07:24:09.430Z,573.75
2018-06-14T07:25:09.395Z,562.50
2018-06-14T07:26:09.388Z,562.50
2018-06-14T07:27:09.728Z,540.00
2018-06-14T07:28:09.374Z,551.25
2018-06-14T07:29:09.352Z,556.88
2018-06-14T07:30:09.354Z,540.00
2018-06-14T07:31:09.370Z,540.00
2018-06-14T07:32:09.326Z,517.50
2018-06-14T07:33:09.664Z,517.50
2018-06-14T07:34:09.296Z,489.38
2018-06-14T07:35:09.334Z,489.38
2018-06-14T07:36:09.283Z,489.38
2018-06-14T07:37:09.317Z,489.38
2018-06-14T07:38:09.250Z,534.38
2018-06-14T07:39:09.589Z,495.00
2018-06-14T07:41:09.215Z,489.38
2018-06-14T07:42:09.203Z,500.63
2018-06-14T07:43:09.199Z,483.75
2018-06-14T07:44:09.198Z,483.75
2018-06-14T07:45:09.529Z,483.75
2018-06-14T07:46:09.222Z,478.13
2018-06-14T07:47:09.171Z,472.50
2018-06-14T07:48:09.171Z,472.50
2018-06-14T07:50:09.185Z,466.88
2018-06-14T07:51:09.459Z,495.00
2018-06-14T07:52:09.094Z,483.75
2018-06-14T07:53:09.123Z,483.75
2018-06-14T07:54:09.143Z,483.75
2018-06-14T07:56:09.077Z,489.38
2018-06-14T07:57:09.123Z,506.25
2018-06-14T07:58:10.116Z,500.63
2018-06-14T07:59:09.028Z,500.63
2018-06-14T08:00:09.046Z,511.88
2018-06-14T08:01:09.077Z,517.50
2018-06-14T08:02:09.078Z,511.88
2018-06-14T08:03:09.067Z,511.88
2018-06-14T08:05:09.053Z,500.63
2018-06-14T08:06:09.048Z,528.75
2018-06-14T08:07:08.977Z,506.25
2018-06-14T08:08:08.928Z,540.00
2018-06-14T08:09:08.974Z,562.50
2018-06-14T08:10:09.266Z,579.38
2018-06-14T08:11:08.963Z,579.38
2018-06-14T08:12:08.931Z,585.00
2018-06-14T08:13:08.931Z,585.00
2018-06-14T08:14:09.002Z,601.88
2018-06-14T08:15:08.944Z,601.88
2018-06-14T08:16:08.882Z,607.50
2018-06-14T08:17:09.143Z,624.38
2018-06-14T08:18:08.935Z,635.63
2018-06-14T08:19:08.943Z,658.13
2018-06-14T08:20:08.818Z,669.38
2018-06-14T08:21:08.891Z,691.88
2018-06-14T08:23:09.171Z,804.38
2018-06-14T08:24:08.795Z,770.63
2018-06-14T08:25:08.772Z,646.88
2018-06-14T08:26:08.895Z,691.88
2018-06-14T08:27:08.937Z,742.50
2018-06-14T08:29:09.045Z,736.88
2018-06-14T08:30:08.739Z,703.13
2018-06-14T08:31:08.738Z,691.88
2018-06-14T08:33:08.758Z,781.88
2018-06-14T08:35:09.026Z,860.63
2018-06-14T08:36:08.756Z,928.13
2018-06-14T08:37:08.679Z,1035.00
2018-06-14T08:38:08.693Z,1063.13
2018-06-14T08:39:08.758Z,1108.13
2018-06-14T08:40:08.675Z,1136.25
2018-06-14T08:41:08.691Z,1113.75
2018-06-14T08:42:08.949Z,1175.63
2018-06-14T08:43:08.651Z,1181.25
2018-06-14T08:44:08.643Z,1175.63
2018-06-14T08:45:09.027Z,1220.63
2018-06-14T08:46:08.620Z,1265.63
2018-06-14T08:47:08.644Z,1119.38
2018-06-14T08:48:08.595Z,1096.88
2018-06-14T08:50:08.569Z,2525.63
2018-06-14T08:51:08.649Z,3116.25
2018-06-14T08:52:08.568Z,2058.75
2018-06-14T08:53:08.594Z,2986.88
2018-06-14T08:54:08.553Z,3251.25
2018-06-14T08:55:08.537Z,3166.88
2018-06-14T08:56:08.835Z,2542.50
2018-06-14T08:57:08.565Z,2317.50
2018-06-14T08:58:08.547Z,2103.75
2018-06-14T09:00:08.498Z,3425.63
2018-06-14T09:01:08.585Z,3532.50
2018-06-14T09:02:08.788Z,3521.25
2018-06-14T09:03:08.537Z,3594.38
2018-06-14T09:04:08.574Z,2345.63
2018-06-14T09:05:08.511Z,3639.38
2018-06-14T09:06:08.456Z,3656.25
2018-06-14T09:07:08.560Z,3729.38
2018-06-14T09:08:08.871Z,3510.00
2018-06-14T09:09:08.642Z,4027.50
2018-06-14T09:10:08.532Z,3751.88
2018-06-14T09:11:08.653Z,3639.38
2018-06-14T09:12:08.515Z,3656.25
2018-06-14T09:13:08.546Z,3386.25
2018-06-14T09:14:08.828Z,3819.38
2018-06-14T09:16:08.392Z,3718.13
2018-06-14T09:18:10.609Z,3796.88
2018-06-14T09:19:15.058Z,3841.88
2018-06-14T09:20:16.786Z,3830.63
2018-06-14T09:21:08.381Z,3830.63
2018-06-14T09:24:08.340Z,4050.00
2018-06-14T09:25:08.648Z,3965.63
2018-06-14T09:26:08.394Z,4111.88
2018-06-14T09:27:08.333Z,4235.63
2018-06-14T09:28:08.325Z,4342.50
2018-06-14T09:29:08.680Z,4404.38
2018-06-14T09:30:08.352Z,4173.75
2018-06-14T09:31:08.644Z,4033.13
2018-06-14T09:32:08.358Z,4038.75
2018-06-14T09:33:08.311Z,3988.13
2018-06-14T09:34:08.300Z,3886.88
2018-06-14T09:35:08.417Z,4235.63
2018-06-14T09:36:08.304Z,4421.25
2018-06-14T09:37:08.660Z,4291.88
2018-06-14T09:38:08.340Z,4308.75
2018-06-14T09:39:08.286Z,4488.75
2018-06-14T09:40:08.289Z,4550.63
2018-06-14T09:41:08.306Z,4460.63
2018-06-14T09:42:08.305Z,4348.13
2018-06-14T09:43:08.629Z,4291.88
2018-06-14T09:44:08.355Z,4460.63
2018-06-14T09:45:08.268Z,4432.50
2018-06-14T09:46:08.267Z,4466.25
2018-06-14T09:47:08.267Z,4218.75
2018-06-14T09:48:08.263Z,3926.25
2018-06-14T09:49:08.265Z,3830.63
2018-06-14T09:50:08.633Z,3706.88
2018-06-14T09:51:08.259Z,3965.63
2018-06-14T09:52:08.265Z,4365.00
2018-06-14T09:53:08.255Z,4471.88
2018-06-14T09:54:08.251Z,4331.25
2018-06-14T09:55:08.266Z,4100.63
2018-06-14T09:56:08.299Z,4027.50
2018-06-14T09:57:08.550Z,4168.13
2018-06-14T09:58:08.251Z,4055.63
2018-06-14T09:59:08.312Z,4173.75
2018-06-14T10:00:08.246Z,4010.63
2018-06-14T10:01:08.318Z,4438.13
2018-06-14T10:02:09.058Z,4623.75
2018-06-14T10:03:08.330Z,4370.63
2018-06-14T10:04:08.547Z,4370.63
2018-06-14T10:05:08.239Z,4398.75
2018-06-14T10:06:08.306Z,4393.13
2018-06-14T10:07:08.253Z,4449.38
2018-06-14T10:08:08.274Z,4359.38
2018-06-14T10:09:08.223Z,4156.88
2018-06-14T10:10:08.235Z,3780.00
2018-06-14T10:11:08.526Z,3830.63
2018-06-14T10:12:08.237Z,3976.88
2018-06-14T10:13:08.216Z,4201.88
2018-06-14T10:14:08.271Z,4387.50
2018-06-14T10:15:08.228Z,4140.00
2018-06-14T10:16:08.232Z,4044.38
2018-06-14T10:17:08.227Z,4230.00
2018-06-14T10:18:08.525Z,4404.38
2018-06-14T10:19:08.269Z,4263.75
2018-06-14T10:21:08.259Z,4151.25
2018-06-14T10:22:08.343Z,3971.25
2018-06-14T10:23:08.211Z,4106.25
2018-06-14T10:24:08.206Z,2086.88
2018-06-14T10:25:08.510Z,3802.50
2018-06-14T10:26:08.225Z,3757.50
2018-06-14T10:27:08.257Z,2846.25
2018-06-14T10:28:08.211Z,1760.63
2018-06-14T10:29:08.207Z,1383.75
2018-06-14T10:30:08.206Z,1327.50
2018-06-14T10:31:08.212Z,1299.38
2018-06-14T10:32:08.506Z,1271.25
2018-06-14T10:33:08.363Z,1226.25
2018-06-14T10:34:08.207Z,1192.50
2018-06-14T10:35:08.215Z,1198.13
2018-06-14T10:36:08.211Z,1231.88
2018-06-14T10:37:08.212Z,1260.00
2018-06-14T10:38:08.508Z,1248.75
2018-06-14T10:39:08.285Z,1254.38
2018-06-14T10:40:08.207Z,1243.13
2018-06-14T10:41:08.415Z,1338.75
2018-06-14T10:42:08.368Z,1366.88
2018-06-14T10:43:08.211Z,1395.00
2018-06-14T10:44:08.587Z,1350.00
2018-06-14T10:45:08.264Z,1383.75
2018-06-14T10:46:08.216Z,1321.88
2018-06-14T10:47:08.208Z,1333.13
2018-06-14T10:48:08.234Z,1316.25
2018-06-14T10:49:08.211Z,1344.38
2018-06-14T10:50:08.524Z,1434.38
2018-06-14T10:51:08.259Z,1569.38
2018-06-14T10:52:08.259Z,1906.88
2018-06-14T10:53:08.236Z,3048.75
2018-06-14T10:54:08.224Z,4117.50
2018-06-14T10:55:08.306Z,4207.50
2018-06-14T10:56:08.596Z,4016.25
2018-06-14T10:57:08.306Z,3926.25
2018-06-14T10:58:08.237Z,4140.00
2018-06-14T10:59:08.215Z,4145.63
2018-06-14T11:00:08.219Z,3903.75
2018-06-14T11:01:08.225Z,3909.38
2018-06-14T11:02:08.267Z,3183.75
2018-06-14T11:03:08.583Z,635.63
2018-06-14T11:04:08.397Z,613.13
2018-06-14T11:05:08.232Z,720.00
2018-06-14T11:06:08.227Z,708.75
2018-06-14T11:07:08.219Z,708.75
2018-06-14T11:08:08.441Z,618.75
2018-06-14T11:09:08.596Z,618.75
2018-06-14T11:10:08.247Z,646.88
2018-06-14T11:11:08.258Z,1181.25
2018-06-14T11:12:08.257Z,860.63
2018-06-14T11:13:08.276Z,804.38
2018-06-14T11:14:08.253Z,765.00
2018-06-14T11:15:08.597Z,686.25
2018-06-14T11:16:09.278Z,613.13
2018-06-14T11:17:08.211Z,528.75
2018-06-14T11:18:08.369Z,540.00
2018-06-14T11:19:08.307Z,517.50
2018-06-14T11:20:08.211Z,534.38
2018-06-14T11:21:08.645Z,703.13
2018-06-14T11:22:08.211Z,3060.00
2018-06-14T11:23:11.337Z,826.88
2018-06-14T11:24:08.191Z,731.25
2018-06-14T11:25:08.211Z,900.00
2018-06-14T11:26:08.211Z,646.88
2018-06-14T11:27:08.405Z,613.13
2018-06-14T11:28:08.164Z,585.00
2018-06-14T11:29:08.148Z,540.00
2018-06-14T11:30:08.549Z,545.63
2018-06-14T11:31:08.168Z,517.50
2018-06-14T11:32:08.219Z,511.88
2018-06-14T11:33:09.075Z,556.88
2018-06-14T11:34:08.413Z,545.63
2018-06-14T11:35:08.506Z,506.25
2018-06-14T11:37:08.403Z,455.63
2018-06-14T11:38:08.112Z,500.63
2018-06-14T11:39:08.164Z,545.63
2018-06-14T11:40:08.478Z,506.25
2018-06-14T11:41:08.184Z,528.75
2018-06-14T11:42:08.164Z,528.75
2018-06-14T11:44:08.135Z,534.38
2018-06-14T11:45:08.177Z,579.38
2018-06-14T11:46:08.066Z,601.88
2018-06-14T11:47:08.422Z,601.88
2018-06-14T11:48:08.127Z,731.25
2018-06-14T11:49:08.167Z,770.63
2018-06-14T11:50:08.127Z,731.25
2018-06-14T11:51:08.198Z,1080.00
2018-06-14T11:52:08.072Z,1057.50
2018-06-14T11:53:08.163Z,1085.63
2018-06-14T11:55:08.362Z,1074.38
2018-06-14T11:56:08.078Z,1063.13
2018-06-14T11:57:08.036Z,1012.50
2018-06-14T11:58:08.067Z,961.88
2018-06-14T11:59:08.115Z,573.75
2018-06-14T12:00:08.021Z,579.38
2018-06-14T12:01:07.997Z,551.25
2018-06-14T12:02:08.259Z,585.00
2018-06-14T12:03:08.020Z,641.25
2018-06-14T12:04:08.924Z,630.00
2018-06-14T12:05:07.923Z,624.38
2018-06-14T12:06:07.973Z,573.75
2018-06-14T12:07:08.032Z,545.63
2018-06-14T12:08:07.925Z,540.00
2018-06-14T12:09:08.327Z,585.00
2018-06-14T12:10:07.923Z,663.75
2018-06-14T12:11:07.912Z,1153.13
2018-06-14T12:12:07.974Z,1282.50
2018-06-14T12:13:07.923Z,1293.75
2018-06-14T12:14:07.926Z,1226.25
2018-06-14T12:15:08.027Z,1046.25
2018-06-14T12:16:08.213Z,1063.13
2018-06-14T12:17:07.926Z,1046.25
2018-06-14T12:18:07.887Z,646.88
2018-06-14T12:19:08.070Z,511.88
2018-06-14T12:20:07.875Z,500.63
2018-06-14T12:21:07.923Z,736.88
2018-06-14T12:22:08.215Z,916.88
2018-06-14T12:23:07.972Z,1040.63
2018-06-14T12:24:08.164Z,1170.00
2018-06-14T12:25:08.020Z,1085.63
2018-06-14T12:26:07.877Z,1018.13
2018-06-14T12:28:08.310Z,832.50
2018-06-14T12:29:08.163Z,478.13
2018-06-14T12:30:08.164Z,483.75
2018-06-14T12:31:08.041Z,562.50
2018-06-14T12:32:08.115Z,624.38
2018-06-14T12:33:08.083Z,765.00
2018-06-14T12:34:08.269Z,1507.50
2018-06-14T12:35:07.972Z,1631.25
2018-06-14T12:36:08.088Z,1822.50
2018-06-14T12:37:08.316Z,2812.50
2018-06-14T12:38:07.831Z,2621.25
2018-06-14T12:40:08.213Z,1940.63
2018-06-14T12:41:07.827Z,2047.50
2018-06-14T12:42:07.828Z,2379.38
2018-06-14T12:43:07.840Z,2863.13
2018-06-14T12:44:07.823Z,3071.25
2018-06-14T12:46:08.259Z,3262.50
2018-06-14T12:47:07.821Z,3144.38
2018-06-14T12:48:08.123Z,663.75
2018-06-14T12:49:07.780Z,388.13
2018-06-14T12:50:07.782Z,376.88
2018-06-14T12:51:07.831Z,410.63
2018-06-14T12:52:08.259Z,523.13
2018-06-14T12:53:07.885Z,3178.13
2018-06-14T12:54:07.779Z,1468.13
2018-06-14T12:55:07.769Z,787.50
2018-06-14T12:56:07.827Z,618.75
2018-06-14T12:57:07.758Z,793.13
2018-06-14T12:58:08.163Z,675.00
2018-06-14T13:01:07.805Z,748.13
2018-06-14T13:02:07.779Z,652.50
2018-06-14T13:03:07.908Z,2992.50
2018-06-14T13:04:08.113Z,2205.00
2018-06-14T13:06:09.316Z,540.00
2018-06-14T13:07:07.733Z,466.88
2018-06-14T13:08:07.729Z,489.38
2018-06-14T13:09:07.795Z,528.75
2018-06-14T13:10:07.827Z,545.63
2018-06-14T13:11:08.128Z,551.25
2018-06-14T13:12:07.709Z,601.88
2018-06-14T13:13:07.794Z,748.13
2018-06-14T13:14:07.720Z,2238.75
2018-06-14T13:15:07.828Z,1805.63
2018-06-14T13:16:07.876Z,1456.88
2018-06-14T13:17:07.827Z,1215.00
2018-06-14T13:18:08.084Z,1057.50
2018-06-14T13:19:07.833Z,568.13
2018-06-14T13:20:07.786Z,450.00
2018-06-14T13:21:07.786Z,1085.63
2018-06-14T13:22:07.834Z,613.13
2018-06-14T13:23:07.783Z,1130.63
2018-06-14T13:24:08.074Z,697.50
2018-06-14T13:25:07.792Z,821.25
2018-06-14T13:26:07.779Z,1001.25
2018-06-14T13:27:07.786Z,579.38
2018-06-14T13:28:07.787Z,579.38
2018-06-14T13:29:07.683Z,781.88
2018-06-14T13:30:07.684Z,759.38
2018-06-14T13:32:07.970Z,1074.38
2018-06-14T13:33:07.683Z,568.13
2018-06-14T13:34:07.730Z,478.13
2018-06-14T13:35:07.640Z,472.50
2018-06-14T13:36:07.700Z,540.00
2018-06-14T13:37:07.730Z,680.63
2018-06-14T13:38:08.024Z,697.50
2018-06-14T13:39:08.651Z,697.50
2018-06-14T13:40:08.835Z,871.88
2018-06-14T13:41:09.843Z,1068.75
2018-06-14T13:42:10.731Z,720.00
2018-06-14T13:43:07.778Z,601.88
2018-06-14T13:44:07.922Z,607.50
2018-06-14T13:45:07.634Z,860.63
2018-06-14T13:46:07.682Z,495.00
2018-06-14T13:47:07.670Z,506.25
2018-06-14T13:48:07.635Z,832.50
2018-06-14T13:49:07.782Z,630.00
2018-06-14T13:50:08.067Z,849.38
2018-06-14T13:51:07.634Z,928.13
2018-06-14T13:52:07.736Z,933.75
2018-06-14T13:53:07.591Z,877.50
2018-06-14T13:54:07.732Z,798.75
2018-06-14T13:55:07.731Z,793.13